Time;durP1;ratioP1;P1;durP2;ratioP2;P2;SDS_P1;SDS_P2;PMS_P1;PMS_P2;Temp;Humidity;BMP_temperature;BMP_pressure;BME280_temperature;BME280_humidity;BME280_pressure;Samples;Min_cycle;Max_cycle;Signal;HPM_P1;HPM_P2
2024/04/12 00:01:01;;;;;;;11.60;3.97;;;;;;;6.18;72.41;102001.81;2713990;26;20035;-74
2024/04/12 00:02:15;;;;;;;3.75;3.20;;;;;;;6.19;71.85;101997.50;2706582;26;19996;-74
2024/04/12 00:03:29;;;;;;;5.40;3.13;;;;;;;6.20;72.25;102001.88;2699100;26;19999;-74
2024/04/12 00:04:43;;;;;;;4.75;2.50;;;;;;;6.21;72.04;102007.09;2701103;26;20012;-74
2024/04/12 00:06:05;;;;;;;6.07;4.45;;;;;;;6.20;72.21;101999.28;2723314;26;20003;-74
2024/04/12 00:07:18;;;;;;;5.03;3.38;;;;;;;6.19;72.62;102002.69;2714570;26;20003;-74
2024/04/12 00:08:32;;;;;;;3.88;3.20;;;;;;;6.20;72.52;102009.66;2712964;26;19995;-74
2024/04/12 00:09:52;;;;;;;3.95;3.33;;;;;;;6.18;72.33;102001.81;2717422;26;20418;-75
2024/04/12 00:11:07;;;;;;;10.90;3.55;;;;;;;6.18;72.08;102013.91;2715266;26;20010;-74
2024/04/12 00:12:25;;;;;;;5.90;3.78;;;;;;;6.16;72.56;102012.97;2715399;26;20344;-74
2024/04/12 00:13:41;;;;;;;4.00;3.08;;;;;;;6.10;72.04;102004.16;2714454;26;20666;-74
2024/04/12 00:14:54;;;;;;;4.43;3.38;;;;;;;6.09;71.97;102002.41;2717675;26;20028;-75
2024/04/12 00:16:08;;;;;;;4.07;2.67;;;;;;;6.06;72.07;102004.88;2714855;26;20007;-75
2024/04/12 00:17:21;;;;;;;6.55;4.03;;;;;;;6.04;72.24;102005.66;2714997;26;20006;-74
2024/04/12 00:18:36;;;;;;;5.93;3.35;;;;;;;6.01;72.21;102006.44;2695780;26;20040;-74
2024/04/12 00:19:52;;;;;;;5.03;2.97;;;;;;;5.98;72.64;102001.19;2694083;26;20026;-74
2024/04/12 00:21:05;;;;;;;3.80;3.42;;;;;;;5.98;72.32;102003.78;2702087;26;20000;-75
2024/04/12 00:22:18;;;;;;;4.80;3.55;;;;;;;5.97;72.58;102002.03;2713474;26;20016;-74
2024/04/12 00:23:32;;;;;;;4.97;3.50;;;;;;;5.96;72.44;102000.25;2717632;26;20039;-74
2024/04/12 00:24:46;;;;;;;5.38;4.47;;;;;;;5.95;72.81;102000.22;2714293;26;20463;-74
2024/04/12 00:26:02;;;;;;;3.28;2.65;;;;;;;5.92;72.31;101993.19;2715482;26;20073;-74
2024/04/12 00:27:15;;;;;;;7.22;3.55;;;;;;;5.88;72.80;101999.09;2696547;26;20004;-74
2024/04/12 00:28:30;;;;;;;11.30;3.55;;;;;;;5.88;72.87;102001.69;2692827;26;20003;-75
2024/04/12 00:29:46;;;;;;;4.80;2.95;;;;;;;5.86;72.50;101998.16;2711063;26;21704;-74
2024/04/12 00:31:00;;;;;;;3.25;2.88;;;;;;;5.83;72.76;101992.88;2715863;26;20080;-74
2024/04/12 00:32:13;;;;;;;3.75;2.70;;;;;;;5.78;72.51;101994.44;2716081;26;20064;-74
2024/04/12 00:33:34;;;;;;;3.85;3.45;;;;;;;5.71;72.57;101993.38;2702472;26;20015;-74
2024/04/12 00:34:47;;;;;;;4.68;2.90;;;;;;;5.66;72.49;101988.03;2710260;26;20010;-74
2024/04/12 00:36:08;;;;;;;4.13;3.53;;;;;;;5.64;72.51;101994.00;2710518;26;20003;-74
2024/04/12 00:37:22;;;;;;;5.70;4.00;;;;;;;5.63;72.50;101994.84;2711660;26;20684;-74
2024/04/12 00:38:38;;;;;;;3.10;2.72;;;;;;;5.60;72.36;101995.63;2722016;26;19992;-74
2024/04/12 00:39:54;;;;;;;4.93;3.25;;;;;;;5.56;72.60;101993.75;2720862;26;20336;-75
2024/04/12 00:41:11;;;;;;;3.38;3.05;;;;;;;5.55;72.91;101991.09;2711247;26;20011;-74
2024/04/12 00:42:31;;;;;;;6.32;3.17;;;;;;;5.53;72.57;101993.66;2722059;26;20007;-74
2024/04/12 00:43:49;;;;;;;5.00;3.05;;;;;;;5.54;73.23;101997.09;2721230;26;20015;-75
2024/04/12 00:45:02;;;;;;;4.00;3.28;;;;;;;5.57;72.92;101999.78;2712928;26;20491;-74
2024/04/12 00:46:25;;;;;;;3.60;2.92;;;;;;;5.60;73.02;101998.22;2722136;26;20010;-74
2024/04/12 00:47:41;;;;;;;5.63;4.00;;;;;;;5.62;73.16;101998.25;2721313;26;19996;-74
2024/04/12 00:48:57;;;;;;;3.67;3.38;;;;;;;5.62;73.31;102001.69;2723939;26;20035;-74
2024/04/12 00:50:15;;;;;;;3.75;3.13;;;;;;;5.62;73.44;102001.69;2723416;26;20028;-75
2024/04/12 00:51:29;;;;;;;5.75;3.10;;;;;;;5.64;73.14;101999.19;2712928;26;19995;-74
2024/04/12 00:52:43;;;;;;;5.47;2.97;;;;;;;5.63;73.42;101995.72;2714792;26;20014;-74
2024/04/12 00:53:58;;;;;;;4.60;2.85;;;;;;;5.62;72.87;101999.13;2706790;26;20015;-74
2024/04/12 00:55:13;;;;;;;3.60;3.30;;;;;;;5.60;72.69;102002.47;2696213;26;20832;-74
2024/04/12 00:56:27;;;;;;;5.40;3.60;;;;;;;5.55;73.14;101996.28;2695483;26;19992;-74
2024/04/12 00:57:41;;;;;;;6.93;3.33;;;;;;;5.52;73.09;101994.44;2695639;26;20499;-74
2024/04/12 00:58:59;;;;;;;6.75;3.88;;;;;;;5.49;72.88;101993.47;2695812;26;20004;-75
2024/04/12 01:00:19;;;;;;;8.20;3.63;;;;;;;5.45;73.15;101990.78;2707004;26;20134;-75
2024/04/12 01:01:34;;;;;;;5.80;3.40;;;;;;;5.43;73.05;101992.44;2708300;26;20371;-75
2024/04/12 01:02:48;;;;;;;5.95;3.10;;;;;;;5.40;72.89;101988.88;2707319;26;20077;-74
2024/04/12 01:04:01;;;;;;;2.95;2.72;;;;;;;5.37;73.11;101988.75;2706696;26;20004;-74
2024/04/12 01:05:19;;;;;;;4.10;3.05;;;;;;;5.39;73.73;101994.88;2722697;26;20046;-74
2024/04/12 01:06:32;;;;;;;5.93;3.15;;;;;;;5.40;73.18;101988.88;2706534;26;19996;-74
2024/04/12 01:07:49;;;;;;;4.38;3.03;;;;;;;5.40;73.33;101984.59;2706435;26;20074;-74
2024/04/12 01:09:11;;;;;;;5.53;4.45;;;;;;;5.41;73.41;101982.88;2706699;26;20438;-74
2024/04/12 01:10:24;;;;;;;3.22;2.95;;;;;;;5.41;73.20;101988.03;2710667;26;20032;-75
2024/04/12 01:11:38;;;;;;;5.18;3.05;;;;;;;5.38;73.39;101982.78;2724716;26;20441;-74
2024/04/12 01:12:58;;;;;;;6.68;3.80;;;;;;;5.36;73.57;101981.84;2725799;26;19999;-75
2024/04/12 01:14:11;;;;;;;4.53;3.58;;;;;;;5.33;73.15;101981.72;2724821;26;20112;-75
2024/04/12 01:15:32;;;;;;;7.45;3.30;;;;;;;5.29;73.80;101982.44;2714490;26;20064;-74
2024/04/12 01:16:45;;;;;;;11.07;4.10;;;;;;;5.27;73.51;101976.31;2706145;26;20000;-74
2024/04/12 01:18:04;;;;;;;4.60;3.00;;;;;;;5.27;73.67;101981.50;2707294;26;19996;-75
2024/04/12 01:19:17;;;;;;;5.03;3.20;;;;;;;5.28;74.13;101978.97;2707588;26;20358;-74
2024/04/12 01:20:35;;;;;;;4.60;3.40;;;;;;;5.27;73.56;101976.31;2706501;26;20011;-75
2024/04/12 01:21:48;;;;;;;4.05;3.28;;;;;;;5.28;73.84;101978.09;2696416;26;20019;-75
2024/04/12 01:23:03;;;;;;;3.75;3.08;;;;;;;5.28;74.02;101980.69;2706462;26;19993;-74
2024/04/12 01:24:17;;;;;;;8.68;2.95;;;;;;;5.28;74.21;101981.56;2705878;26;20011;-74
2024/04/12 01:25:31;;;;;;;4.15;3.50;;;;;;;5.28;73.84;101976.38;2695885;26;20004;-75
2024/04/12 01:26:44;;;;;;;8.20;3.50;;;;;;;5.32;74.29;101977.38;2707300;26;20392;-74
2024/04/12 01:27:58;;;;;;;8.48;4.22;;;;;;;5.29;73.92;101970.38;2706157;26;20001;-74
2024/04/12 01:29:11;;;;;;;5.35;2.83;;;;;;;5.26;73.73;101978.03;2695085;26;20008;-74
2024/04/12 01:30:24;;;;;;;3.42;2.88;;;;;;;5.22;74.04;101981.38;2695230;26;20028;-75
2024/04/12 01:31:38;;;;;;;4.20;3.53;;;;;;;5.18;73.75;101982.06;2694926;26;20011;-75
2024/04/12 01:32:52;;;;;;;5.85;3.47;;;;;;;5.14;73.75;101975.94;2712146;26;20072;-74
2024/04/12 01:34:13;;;;;;;6.05;3.17;;;;;;;5.14;74.20;101978.50;2721412;26;20449;-75
2024/04/12 01:35:26;;;;;;;3.88;3.28;;;;;;;5.13;74.14;101968.97;2706482;26;20024;-74
2024/04/12 01:36:41;;;;;;;5.72;4.15;;;;;;;5.14;74.49;101972.47;2697094;26;19996;-74
2024/04/12 01:37:57;;;;;;;6.00;2.92;;;;;;;5.15;73.95;101972.50;2706979;26;19996;-75
2024/04/12 01:39:11;;;;;;;5.07;4.05;;;;;;;5.15;73.87;101971.63;2720965;26;19995;-76
2024/04/12 01:40:25;;;;;;;9.68;3.28;;;;;;;5.15;74.39;101971.63;2713262;26;20007;-75
2024/04/12 01:41:40;;;;;;;4.13;3.08;;;;;;;5.11;74.14;101970.66;2712483;26;19999;-75
2024/04/12 01:42:53;;;;;;;3.63;3.08;;;;;;;5.10;74.24;101971.47;2713276;26;19996;-75
2024/04/12 01:44:06;;;;;;;3.42;3.13;;;;;;;5.09;74.57;101972.28;2724647;26;20076;-75
2024/04/12 01:45:26;;;;;;;4.55;3.63;;;;;;;5.11;74.35;101965.47;2725420;26;20019;-74
2024/04/12 01:46:39;;;;;;;9.38;3.22;;;;;;;5.12;74.09;101974.97;2718471;26;20039;-74
2024/04/12 01:47:53;;;;;;;3.42;2.92;;;;;;;5.10;74.79;101968.88;2705283;26;20038;-74
2024/04/12 01:49:10;;;;;;;5.30;3.40;;;;;;;5.09;74.18;101969.72;2695254;26;20004;-74
2024/04/12 01:50:23;;;;;;;9.18;4.13;;;;;;;5.07;74.47;101973.06;2695654;26;20451;-75
2024/04/12 01:51:37;;;;;;;6.13;2.92;;;;;;;5.07;74.37;101975.66;2718860;26;19999;-74
2024/04/12 01:52:53;;;;;;;3.80;3.40;;;;;;;5.10;74.33;101963.69;2724356;26;20074;-75
2024/04/12 01:54:17;;;;;;;5.93;3.97;;;;;;;5.10;74.26;101970.59;2713359;26;20465;-74
2024/04/12 01:55:32;;;;;;;5.22;3.65;;;;;;;5.12;74.47;101969.81;2706251;26;20123;-75
2024/04/12 01:56:50;;;;;;;8.13;3.00;;;;;;;5.12;74.57;101974.97;2706482;26;19999;-74
2024/04/12 01:58:03;;;;;;;3.45;2.95;;;;;;;5.13;74.52;101971.56;2696297;26;20007;-74
2024/04/12 01:59:21;;;;;;;3.95;2.83;;;;;;;5.13;74.42;101974.16;2705813;26;20000;-74
2024/04/12 02:00:35;;;;;;;6.75;2.95;;;;;;;5.15;74.88;101969.91;2705894;26;20000;-74
2024/04/12 02:01:49;;;;;;;13.27;4.28;;;;;;;5.13;74.79;101974.16;2695006;26;20041;-74
2024/04/12 02:03:02;;;;;;;3.50;3.17;;;;;;;5.11;74.29;101973.25;2695634;26;19996;-75
2024/04/12 02:04:20;;;;;;;4.35;2.60;;;;;;;5.11;74.45;101981.00;2694052;26;20728;-74
2024/04/12 02:05:34;;;;;;;3.38;2.70;;;;;;;5.08;74.75;101978.28;2696253;26;20461;-75
2024/04/12 02:06:48;;;;;;;4.75;2.80;;;;;;;5.04;74.87;101986.78;2695942;26;20106;-75
2024/04/12 02:08:07;;;;;;;3.83;3.13;;;;;;;4.99;74.74;101988.31;2694263;26;19996;-75
2024/04/12 02:09:20;;;;;;;4.60;4.03;;;;;;;4.96;74.91;101988.22;2696284;26;20531;-74
2024/04/12 02:10:41;;;;;;;3.08;2.78;;;;;;;4.92;74.98;101981.16;2706631;26;19993;-75
2024/04/12 02:11:57;;;;;;;3.67;3.33;;;;;;;4.88;74.71;101981.88;2705824;26;20004;-75
2024/04/12 02:13:16;;;;;;;3.38;3.05;;;;;;;4.86;74.45;101986.13;2706474;26;20073;-75
2024/04/12 02:14:30;;;;;;;4.70;2.97;;;;;;;4.84;74.33;101988.66;2710312;26;20004;-75
2024/04/12 02:15:45;;;;;;;4.10;2.95;;;;;;;4.85;74.27;101984.34;2705275;26;20416;-74
2024/04/12 02:16:59;;;;;;;5.28;3.53;;;;;;;4.87;75.11;101988.75;2695228;26;20042;-74
2024/04/12 02:18:13;;;;;;;5.05;3.17;;;;;;;4.92;75.15;101982.03;2712198;26;20000;-75
2024/04/12 02:19:27;;;;;;;5.47;2.88;;;;;;;4.94;74.57;101984.69;2706253;26;20007;-74
2024/04/12 02:20:44;;;;;;;3.80;3.47;;;;;;;4.95;75.03;101979.56;2705392;26;20008;-75
2024/04/12 02:22:03;;;;;;;4.95;3.95;;;;;;;4.96;74.85;101989.09;2695896;26;20023;-74
2024/04/12 02:23:19;;;;;;;5.00;3.15;;;;;;;4.97;75.29;101989.97;2706739;26;19992;-75
2024/04/12 02:24:33;;;;;;;8.60;3.63;;;;;;;4.98;75.17;101986.53;2705640;26;20012;-74
2024/04/12 02:25:49;;;;;;;3.92;3.53;;;;;;;4.98;74.77;101996.88;2695261;26;20380;-74
2024/04/12 02:27:02;;;;;;;4.88;3.40;;;;;;;4.97;75.41;101984.78;2695109;26;20007;-75
2024/04/12 02:28:16;;;;;;;4.47;3.20;;;;;;;4.97;74.96;101987.38;2694444;26;20328;-76
2024/04/12 02:29:30;;;;;;;6.10;3.55;;;;;;;4.97;75.05;101984.78;2695238;26;19996;-75
2024/04/12 02:30:54;;;;;;;3.67;3.17;;;;;;;4.97;75.09;101987.38;2694943;26;20003;-75
2024/04/12 02:32:08;;;;;;;6.03;3.75;;;;;;;4.96;75.42;101993.41;2696848;26;19996;-74
2024/04/12 02:33:25;;;;;;;6.00;3.83;;;;;;;4.94;75.04;101990.75;2695880;26;20007;-74
2024/04/12 02:34:38;;;;;;;6.32;3.67;;;;;;;4.94;75.49;101995.91;2701686;26;20336;-75
2024/04/12 02:36:03;;;;;;;3.78;3.03;;;;;;;4.94;75.56;101997.63;2724168;26;19992;-74
2024/04/12 02:37:16;;;;;;;4.85;3.60;;;;;;;4.91;75.45;102000.97;2723030;26;20007;-74
2024/04/12 02:38:29;;;;;;;9.80;3.22;;;;;;;4.87;74.94;102004.28;2724098;26;19999;-75
2024/04/12 02:39:43;;;;;;;6.07;3.42;;;;;;;4.86;75.71;102006.81;2716207;26;19996;-74
2024/04/12 02:40:59;;;;;;;4.32;3.40;;;;;;;4.87;75.33;101998.22;2706581;26;20007;-74
2024/04/12 02:42:17;;;;;;;5.45;3.75;;;;;;;4.84;75.15;102003.28;2706088;26;20004;-75
2024/04/12 02:43:32;;;;;;;4.47;3.08;;;;;;;4.84;75.20;102006.75;2700143;26;20006;-75
2024/04/12 02:44:45;;;;;;;4.57;3.17;;;;;;;4.81;75.40;102004.06;2724784;26;20352;-74
2024/04/12 02:46:00;;;;;;;3.85;3.50;;;;;;;4.83;75.48;102002.41;2706022;26;19997;-74
2024/04/12 02:47:16;;;;;;;4.65;3.05;;;;;;;4.84;75.44;102008.47;2701505;26;20665;-74
2024/04/12 02:48:29;;;;;;;5.97;3.42;;;;;;;4.86;75.50;102005.09;2712912;26;19995;-74
2024/04/12 02:49:43;;;;;;;5.35;3.63;;;;;;;4.84;75.40;101993.81;2712994;26;20085;-74
2024/04/12 02:51:03;;;;;;;6.07;3.63;;;;;;;4.82;75.64;102000.63;2724526;26;19999;-74
2024/04/12 02:52:17;;;;;;;7.70;3.67;;;;;;;4.79;75.52;102004.00;2722956;26;20035;-75
2024/04/12 02:53:31;;;;;;;3.47;3.17;;;;;;;4.80;75.99;102007.44;2713543;26;19991;-75
2024/04/12 02:54:45;;;;;;;5.82;3.42;;;;;;;4.78;75.49;102004.81;2712141;26;20031;-75
2024/04/12 02:56:10;;;;;;;4.90;3.35;;;;;;;4.81;75.53;102004.94;2694536;26;19996;-74
2024/04/12 02:57:23;;;;;;;8.57;3.10;;;;;;;4.81;75.82;101998.88;2715206;26;20040;-75
2024/04/12 02:58:40;;;;;;;4.75;3.53;;;;;;;4.82;76.09;102003.22;2724499;26;20004;-75
2024/04/12 02:59:53;;;;;;;3.35;3.03;;;;;;;4.81;75.75;102004.94;2723539;26;20479;-74
2024/04/12 03:01:13;;;;;;;4.90;3.50;;;;;;;4.81;75.72;102006.66;2713041;26;20006;-74
2024/04/12 03:02:27;;;;;;;4.30;3.20;;;;;;;4.77;75.97;102002.16;2713282;26;20007;-74
2024/04/12 03:03:45;;;;;;;11.45;4.85;;;;;;;4.79;75.62;102006.56;2723490;26;20054;-75
2024/04/12 03:05:00;;;;;;;5.45;3.53;;;;;;;4.79;76.06;102006.56;2723731;26;20012;-75
2024/04/12 03:06:16;;;;;;;5.03;3.35;;;;;;;4.83;75.84;102020.53;2724414;26;20073;-75
2024/04/12 03:07:33;;;;;;;4.32;3.10;;;;;;;4.82;75.72;102006.69;2705359;26;19996;-74
2024/04/12 03:08:51;;;;;;;4.10;3.70;;;;;;;4.82;75.94;102011.84;2706448;26;20588;-75
2024/04/12 03:10:06;;;;;;;4.97;3.13;;;;;;;4.81;76.05;102014.41;2705633;26;19999;-75
2024/04/12 03:11:25;;;;;;;3.67;3.13;;;;;;;4.80;75.85;102016.13;2705583;26;20036;-74
2024/04/12 03:12:43;;;;;;;3.45;3.15;;;;;;;4.79;76.12;102016.03;2705678;26;20000;-75
2024/04/12 03:14:03;;;;;;;4.07;3.30;;;;;;;4.80;76.05;102023.88;2696076;26;20007;-74
2024/04/12 03:15:20;;;;;;;7.65;4.97;;;;;;;4.81;75.97;102024.75;2697427;26;20012;-75
2024/04/12 03:16:35;;;;;;;6.28;3.63;;;;;;;4.83;75.88;102015.34;2696297;26;20004;-74
2024/04/12 03:17:49;;;;;;;5.97;3.75;;;;;;;4.81;76.08;102025.63;2694331;26;20019;-75
2024/04/12 03:19:07;;;;;;;7.57;3.88;;;;;;;4.81;75.71;102019.56;2694051;26;20008;-74
2024/04/12 03:20:20;;;;;;;4.30;3.72;;;;;;;4.80;75.77;102015.22;2695023;26;20090;-75
2024/04/12 03:21:35;;;;;;;6.80;3.25;;;;;;;4.78;75.79;102017.75;2706373;26;20004;-75
2024/04/12 03:22:48;;;;;;;5.13;2.88;;;;;;;4.76;76.23;102014.22;2708450;26;20003;-74
2024/04/12 03:24:02;;;;;;;5.00;3.50;;;;;;;4.72;75.72;102014.94;2696629;26;20028;-75
2024/04/12 03:25:15;;;;;;;5.43;3.13;;;;;;;4.69;75.55;102014.81;2694149;26;20004;-75
2024/04/12 03:26:30;;;;;;;3.97;3.58;;;;;;;4.66;75.72;102009.53;2694101;26;19996;-73
2024/04/12 03:27:44;;;;;;;4.13;3.67;;;;;;;4.64;76.07;102012.88;2705564;26;20010;-75
2024/04/12 03:28:59;;;;;;;6.18;3.33;;;;;;;4.62;75.86;102015.44;2688142;26;20418;-75
2024/04/12 03:30:15;;;;;;;7.18;4.28;;;;;;;4.61;76.09;102011.06;2683039;26;20055;-75
2024/04/12 03:31:28;;;;;;;5.70;3.20;;;;;;;4.62;76.14;102006.78;2694527;26;20131;-75
2024/04/12 03:32:44;;;;;;;4.32;3.35;;;;;;;4.62;76.32;101999.00;2695074;26;20016;-75
2024/04/12 03:34:00;;;;;;;5.72;5.20;;;;;;;4.61;76.22;102005.91;2694634;26;19996;-75
2024/04/12 03:35:17;;;;;;;4.60;3.97;;;;;;;4.61;75.98;102000.72;2706373;26;20004;-75
2024/04/12 03:40:34;;;;;;;8.00;3.28;;;;;;;4.69;76.72;101999.31;2716615;26;19999;-75
2024/04/12 03:42:08;;;;;;;3.92;3.30;;;;;;;4.72;76.84;102001.13;2712634;26;19995;-76
2024/04/12 03:43:21;;;;;;;3.80;3.50;;;;;;;4.71;76.39;101995.06;2700948;26;20464;-73
2024/04/12 03:44:36;;;;;;;7.15;3.30;;;;;;;4.74;76.68;101997.75;2705712;26;20078;-75
2024/04/12 03:45:58;;;;;;;8.57;5.43;;;;;;;4.73;76.23;101996.03;2705520;26;19996;-75
2024/04/12 03:47:13;;;;;;;5.07;3.38;;;;;;;4.71;76.17;102001.97;2696215;26;20076;-75
2024/04/12 03:48:26;;;;;;;4.55;4.15;;;;;;;4.70;76.35;101995.91;2693588;26;20087;-75
2024/04/12 03:49:41;;;;;;;4.13;3.55;;;;;;;4.71;76.64;101999.38;2694183;26;20499;-75
2024/04/12 03:51:01;;;;;;;5.20;3.67;;;;;;;4.71;76.60;102002.84;2694395;26;20004;-75
2024/04/12 03:52:19;;;;;;;6.22;5.20;;;;;;;4.72;76.35;101994.22;2694988;26;19997;-75
2024/04/12 03:53:32;;;;;;;4.47;4.00;;;;;;;4.75;76.38;102008.97;2709699;26;20047;-76
2024/04/12 03:54:46;;;;;;;3.70;3.35;;;;;;;4.74;76.18;102005.53;2723023;26;20003;-75
2024/04/12 03:56:03;;;;;;;4.15;3.53;;;;;;;4.73;76.43;101996.03;2711420;26;20395;-74
2024/04/12 03:57:16;;;;;;;10.07;4.00;;;;;;;4.72;76.22;101999.41;2712162;26;20000;-75
2024/04/12 03:58:29;;;;;;;6.50;3.00;;;;;;;4.72;76.20;101999.41;2712549;26;19995;-75
2024/04/12 03:59:43;;;;;;;3.60;3.13;;;;;;;4.74;76.42;101997.75;2723380;26;20345;-74
2024/04/12 04:00:56;;;;;;;4.90;3.42;;;;;;;4.74;76.21;101992.59;2724603;26;20024;-75
2024/04/12 04:02:11;;;;;;;5.70;3.55;;;;;;;4.75;76.83;101991.78;2723900;26;20006;-75
2024/04/12 04:03:31;;;;;;;5.57;3.60;;;;;;;4.78;76.53;101999.66;2711430;26;20000;-75
2024/04/12 04:04:44;;;;;;;8.13;3.90;;;;;;;4.84;76.45;101992.94;2724000;26;20023;-75
2024/04/12 04:05:58;;;;;;;4.65;3.78;;;;;;;4.86;76.43;101992.19;2723457;26;20076;-75
2024/04/12 04:07:15;;;;;;;7.25;3.42;;;;;;;4.88;76.84;101995.69;2711102;26;20451;-75
2024/04/12 04:08:29;;;;;;;4.70;3.90;;;;;;;4.90;76.60;101991.44;2711841;26;19999;-75
2024/04/12 04:09:43;;;;;;;4.28;3.72;;;;;;;4.92;76.65;101986.34;2723878;26;19999;-75
2024/04/12 04:11:02;;;;;;;6.00;3.65;;;;;;;4.93;76.80;101983.81;2723453;26;20472;-75
2024/04/12 04:12:15;;;;;;;5.88;3.47;;;;;;;4.95;76.27;101991.63;2711128;26;20006;-75
2024/04/12 04:13:29;;;;;;;4.07;2.92;;;;;;;4.96;76.46;101990.81;2721240;26;20026;-75
2024/04/12 04:14:48;;;;;;;5.53;3.67;;;;;;;4.98;76.19;101989.13;2706746;26;20326;-75
2024/04/12 04:16:01;;;;;;;6.32;3.65;;;;;;;5.01;76.65;101991.84;2705169;26;20078;-76
2024/04/12 04:17:15;;;;;;;3.92;3.63;;;;;;;5.03;76.15;101985.91;2705913;26;19992;-75
2024/04/12 04:18:32;;;;;;;3.40;2.95;;;;;;;5.03;76.97;101996.25;2705261;26;20349;-75
2024/04/12 04:19:45;;;;;;;12.98;3.78;;;;;;;5.03;76.29;101991.06;2714582;26;20000;-75
2024/04/12 04:21:07;;;;;;;4.45;3.50;;;;;;;5.04;76.54;101991.94;2705418;26;20019;-75
2024/04/12 04:23:48;;;;;;;4.03;3.63;;;;;;;5.02;76.34;101986.72;2707003;26;20012;-75
2024/04/12 04:25:07;;;;;;;8.02;3.35;;;;;;;5.00;75.92;101987.47;2707459;26;20032;-76
2024/04/12 04:26:21;;;;;;;6.65;3.33;;;;;;;4.98;75.79;101991.72;2707341;26;19996;-74
2024/04/12 04:27:35;;;;;;;5.03;3.83;;;;;;;4.95;75.75;101997.66;2706386;26;19993;-75
2024/04/12 04:28:48;;;;;;;9.60;3.88;;;;;;;4.94;76.23;101993.31;2707390;26;19996;-75
2024/04/12 04:30:01;;;;;;;5.63;3.83;;;;;;;4.93;76.14;102001.00;2707349;26;20000;-75
2024/04/12 04:31:18;;;;;;;3.50;3.20;;;;;;;4.91;76.71;102006.16;2721089;26;19999;-75
2024/04/12 04:32:31;;;;;;;8.68;3.70;;;;;;;4.93;76.35;102006.19;2712928;26;19995;-75
2024/04/12 04:33:44;;;;;;;7.38;3.38;;;;;;;4.93;76.70;101995.84;2713771;26;19995;-75
2024/04/12 04:35:09;;;;;;;6.35;4.35;;;;;;;4.94;76.15;102002.78;2731048;26;20379;-75
2024/04/12 04:36:22;;;;;;;11.63;4.10;;;;;;;4.93;76.22;101988.09;2733424;26;19996;-74
2024/04/12 04:37:39;;;;;;;5.13;4.63;;;;;;;4.93;76.14;101988.09;2724051;26;20014;-74
2024/04/12 04:38:54;;;;;;;5.25;3.63;;;;;;;4.92;76.26;101979.44;2714424;26;19999;-74
2024/04/12 04:40:17;;;;;;;5.15;3.75;;;;;;;4.94;76.38;101982.09;2724968;26;20014;-75
2024/04/12 04:41:30;;;;;;;4.32;3.60;;;;;;;4.96;76.21;101977.88;2725851;26;20032;-74
2024/04/12 04:42:45;;;;;;;8.70;3.53;;;;;;;4.97;76.49;101979.63;2725060;26;20388;-75
2024/04/12 04:43:59;;;;;;;9.23;4.47;;;;;;;4.98;76.60;101981.38;2712738;26;20000;-75
2024/04/12 04:45:17;;;;;;;6.40;4.05;;;;;;;4.99;76.61;101985.72;2724541;26;19995;-74
2024/04/12 04:46:32;;;;;;;15.63;3.97;;;;;;;4.98;76.31;101992.63;2725022;26;20012;-74
2024/04/12 04:47:45;;;;;;;6.85;4.32;;;;;;;4.97;76.77;101984.78;2696008;26;19996;-75
2024/04/12 04:48:58;;;;;;;15.82;4.68;;;;;;;4.97;76.74;101985.66;2692546;26;20450;-75
2024/04/12 04:50:17;;;;;;;10.07;4.57;;;;;;;4.99;77.04;101983.16;2707158;26;20536;-75
2024/04/12 04:51:30;;;;;;;17.45;5.65;;;;;;;5.02;76.76;101984.13;2707656;26;20011;-75
2024/04/12 04:52:44;;;;;;;18.70;6.55;;;;;;;5.05;76.58;101991.13;2712677;26;20313;-75
2024/04/12 04:53:59;;;;;;;27.98;9.45;;;;;;;5.07;76.52;101986.88;2713392;26;20524;-75
2024/04/12 04:55:12;;;;;;;16.83;7.95;;;;;;;5.09;76.47;101993.00;2713414;26;20050;-75
2024/04/12 04:56:30;;;;;;;22.52;7.63;;;;;;;5.11;76.30;101991.34;2713037;26;20060;-75
2024/04/12 04:57:43;;;;;;;9.55;4.32;;;;;;;5.13;76.36;101996.56;2724595;26;19999;-75
2024/04/12 04:58:57;;;;;;;12.52;5.82;;;;;;;5.14;76.40;101994.03;2707050;26;20000;-75
2024/04/12 05:00:22;;;;;;;7.85;5.10;;;;;;;5.16;76.61;101992.41;2713172;26;19996;-75
2024/04/12 05:01:35;;;;;;;11.90;5.28;;;;;;;5.17;76.31;101994.16;2724697;26;20040;-74
2024/04/12 05:02:53;;;;;;;7.03;5.93;;;;;;;5.23;76.32;101998.66;2733250;26;20006;-74
2024/04/12 05:04:06;;;;;;;12.15;5.40;;;;;;;5.25;76.47;101987.53;2723640;26;19999;-75
2024/04/12 05:05:23;;;;;;;8.75;4.70;;;;;;;5.32;76.60;101990.31;2724828;26;19996;-75
2024/04/12 05:06:36;;;;;;;7.53;4.75;;;;;;;5.38;76.12;101988.81;2721209;26;20072;-74
2024/04/12 05:07:55;;;;;;;16.48;5.20;;;;;;;5.42;76.44;101984.63;2695166;26;20004;-75
2024/04/12 05:09:12;;;;;;;7.22;4.55;;;;;;;5.45;76.47;101989.91;2696620;26;20023;-75
2024/04/12 05:10:33;;;;;;;12.02;5.78;;;;;;;5.47;76.16;101980.47;2696215;26;20375;-75
2024/04/12 05:11:49;;;;;;;8.95;4.93;;;;;;;5.52;76.20;101984.09;2706877;26;20135;-75
2024/04/12 05:13:05;;;;;;;5.88;4.55;;;;;;;5.57;76.47;101984.25;2734658;26;19999;-74
2024/04/12 05:17:03;;;;;;;10.32;4.63;;;;;;;5.72;76.43;101987.34;2715786;26;20322;-75
2024/04/12 05:18:17;;;;;;;5.72;4.53;;;;;;;5.75;75.77;101989.16;2706455;26;20105;-75
2024/04/12 05:19:40;;;;;;;7.45;3.35;;;;;;;5.81;76.16;101995.44;2694542;26;20004;-74
2024/04/12 05:20:57;;;;;;;14.57;4.40;;;;;;;5.87;76.20;101992.16;2704080;26;20003;-75
2024/04/12 05:22:11;;;;;;;7.68;4.00;;;;;;;5.90;76.05;101980.16;2705785;26;20419;-75
2024/04/12 05:23:28;;;;;;;6.22;4.10;;;;;;;5.95;75.77;101985.53;2710743;26;20003;-75
2024/04/12 05:24:41;;;;;;;4.97;3.03;;;;;;;5.99;75.58;101989.09;2724567;26;20003;-74
2024/04/12 05:25:55;;;;;;;5.80;3.88;;;;;;;6.01;75.26;101990.91;2725341;26;20006;-74
2024/04/12 05:27:10;;;;;;;5.30;4.38;;;;;;;6.05;75.72;101997.97;2723809;26;20010;-75
2024/04/12 05:28:27;;;;;;;9.25;3.78;;;;;;;6.05;75.10;101995.38;2712305;26;20004;-75
2024/04/12 05:29:45;;;;;;;10.52;4.43;;;;;;;6.07;75.19;102004.06;2714164;26;20014;-74
2024/04/12 05:30:58;;;;;;;6.45;4.45;;;;;;;6.08;75.32;101998.03;2724728;26;20367;-75
2024/04/12 05:32:12;;;;;;;8.85;4.35;;;;;;;6.10;75.29;102006.75;2725225;26;19999;-75
2024/04/12 05:33:29;;;;;;;7.15;4.35;;;;;;;6.15;74.95;102009.50;2723618;26;19996;-75
2024/04/12 05:34:42;;;;;;;7.75;4.03;;;;;;;6.21;74.93;102004.50;2724083;26;20043;-74
2024/04/12 05:35:56;;;;;;;7.25;3.50;;;;;;;6.27;74.73;102014.16;2723910;26;20080;-74
2024/04/12 05:37:09;;;;;;;6.40;3.85;;;;;;;6.31;75.06;102010.84;2712203;26;20007;-74
2024/04/12 05:38:24;;;;;;;10.65;3.95;;;;;;;6.35;75.14;102012.72;2724476;26;19996;-74
2024/04/12 05:39:41;;;;;;;13.77;5.53;;;;;;;6.38;74.51;102018.00;2725131;26;20000;-74
2024/04/12 05:40:57;;;;;;;7.78;3.95;;;;;;;6.43;74.27;102018.09;2742098;26;20027;-74
2024/04/12 05:42:11;;;;;;;8.82;4.32;;;;;;;6.46;74.17;102007.84;2736734;26;20011;-74
2024/04/12 05:43:25;;;;;;;8.20;4.68;;;;;;;6.52;74.58;102018.38;2724699;26;20073;-74
2024/04/12 05:44:38;;;;;;;5.15;3.88;;;;;;;6.58;74.31;102026.34;2724178;26;20072;-74
2024/04/12 05:45:53;;;;;;;5.60;3.45;;;;;;;6.64;74.62;102025.66;2713043;26;20003;-74
2024/04/12 05:47:09;;;;;;;6.75;4.05;;;;;;;6.70;74.32;102034.50;2713105;26;20064;-74
2024/04/12 05:48:24;;;;;;;7.47;3.90;;;;;;;6.73;74.32;102033.72;2724237;26;20031;-74
2024/04/12 05:49:37;;;;;;;4.30;3.45;;;;;;;6.78;74.31;102027.81;2706453;26;20004;-74
2024/04/12 05:50:54;;;;;;;5.75;3.88;;;;;;;6.86;73.76;102034.94;2695396;26;20054;-74
2024/04/12 05:52:07;;;;;;;4.78;3.92;;;;;;;6.93;74.10;102032.56;2695579;26;20040;-74
2024/04/12 05:53:24;;;;;;;6.97;4.32;;;;;;;7.04;74.53;102039.78;2706850;26;20000;-74
2024/04/12 05:54:44;;;;;;;5.15;3.83;;;;;;;7.15;73.77;102033.16;2720602;26;20011;-74
2024/04/12 05:57:32;;;;;;;5.10;3.28;;;;;;;7.28;73.50;102037.88;2699814;26;20062;-74
2024/04/12 05:58:45;;;;;;;11.23;4.28;;;;;;;7.35;73.19;102041.50;2706750;26;19992;-73
2024/04/12 06:00:00;;;;;;;4.15;3.50;;;;;;;7.45;73.25;102040.03;2706031;26;19992;-74
2024/04/12 06:01:15;;;;;;;12.02;3.58;;;;;;;7.57;73.97;102040.38;2694988;26;20008;-74
2024/04/12 06:02:28;;;;;;;5.50;4.00;;;;;;;7.76;73.37;102041.72;2706463;26;20082;-74
2024/04/12 06:03:48;;;;;;;5.75;3.20;;;;;;;7.93;73.28;102039.53;2705321;26;20000;-74
2024/04/12 06:05:04;;;;;;;8.45;3.33;;;;;;;8.10;72.65;102043.41;2706997;26;20434;-74